Nearby METAR Reports

 

KPIA - Peoria, Illinois, USA
Distance from station: SSW 11mi, 18km
Updated: 10/20/2018 11:54pm
Clear
Clear
 Wind from NW
Wind: NW 3 mph , 6 km/h
Temperature: 34°F , 1°C
Dew Point: 21°F , -6°C
Humidity: 60%
Barometer: 30.38 inHg , 1028.8 hPa
Clouds: Clear
Visibility: 10 miles , 16 km
2018/10/21 04:54 KPIA 210454Z 32003KT 10SM CLR 01/M06 A3038 RMK AO2 SLP290 T00061056
KC75 - Lacon, Illinois, USA
Distance from station: NE 18mi, 30km
Updated: 10/20/2018 11:55pm
Clear
Clear
 Wind from calm
Wind: Calm
Temperature: 28°F , -2°C
Dew Point: 21°F , -6°C
Humidity: 74%
Barometer: 30.37 inHg , 1028.4 hPa
Clouds: Clear
Visibility: 10 miles , 16 km
2018/10/21 04:55 KC75 210455Z AUTO 00000KT 10SM CLR M02/M06 A3037 RMK AO2 T10221062
 
KGBG - Galesburg, Illinois, USA
Distance from station: W 43mi, 69km
Updated: 10/20/2018 11:55pm
Clear
Clear
 Wind from WNW
Wind: WNW 6 mph , 9 km/h
Temperature: 28°F , -2°C
Wind Chill: 21°F , -6°C
Dew Point: 21°F , -6°C
Humidity: 74%
Barometer: 30.40 inHg , 1029.5 hPa
Clouds: Clear
Visibility: 10 miles , 16 km
2018/10/21 04:55 KGBG 210455Z AUTO 29005KT 10SM CLR M02/M06 A3040 RMK AO2 T10201060
KBMI - Bloomington/Norm, Illinois, USA
Distance from station: ESE 44mi, 71km
Updated: 10/20/2018 11:56pm
Clear
Clear
 Wind from W
Wind: W 5 mph , 7 km/h
Temperature: 30°F , -1°C
Wind Chill: 25°F , -4°C
Dew Point: 21°F , -6°C
Humidity: 69%
Barometer: 30.36 inHg , 1028.1 hPa
Clouds: Clear
Visibility: 10 miles , 16 km
2018/10/21 04:56 KBMI 210456Z AUTO 28004KT 10SM CLR M01/M06 A3036 RMK AO2 SLP308 T10111061
 
KVYS - Peru, Illinois, USA
Distance from station: NNE 44mi, 71km
Updated: 10/20/2018 11:55pm
Clear
Clear
 Wind from WNW
Wind: WNW 8 mph , 13 km/h
Temperature: 30°F , -1°C
Wind Chill: 22°F , -6°C
Dew Point: 21°F , -6°C
Humidity: 69%
Barometer: 30.36 inHg , 1028.1 hPa
Clouds: Clear
Visibility: 10 miles , 16 km
2018/10/21 04:55 KVYS 210455Z AUTO 30007KT 10SM CLR M01/M06 A3036 RMK AO2 T10101056
KAAA - Lincoln, Illinois, USA
Distance from station: SSE 48mi, 77km
Updated: 10/20/2018 11:55pm
Clear
Clear
 Wind from calm
Wind: Calm
Temperature: 34°F , 1°C
Dew Point: 23°F , -5°C
Humidity: 65%
Barometer: 30.39 inHg , 1029.1 hPa
Clouds: Clear
Visibility: 10 miles , 16 km
2018/10/21 04:55 KAAA 210455Z AUTO 00000KT 10SM CLR 01/M05 A3039 RMK AO2 T00071054
 
KPNT - Pontiac, Illinois, USA
Distance from station: E 53mi, 85km
Updated: 10/20/2018 11:55pm
Clear
Clear
 Wind from NW
Wind: NW 3 mph , 6 km/h
Temperature: 28°F , -2°C
Dew Point: 21°F , -6°C
Humidity: 74%
Barometer: 30.36 inHg , 1028.1 hPa
Clouds: Clear
Visibility: 10 miles , 16 km
2018/10/21 04:55 KPNT 210455Z AUTO 31003KT 10SM CLR M02/M06 A3036 RMK AO2 T10201060
KMQB - Macomb Muni, Illinois, USA
Distance from station: WSW 58mi, 93km
Updated: 10/20/2018 11:55pm
Clear
Clear
 Wind from WNW
Wind: WNW 7 mph , 11 km/h
Temperature: 27°F , -3°C
Wind Chill: 19°F , -7°C
Dew Point: 23°F , -5°C
Humidity: 86%
Barometer: 30.42 inHg , 1030.1 hPa
Clouds: Clear
Visibility: 10 miles , 16 km
2018/10/21 04:55 KMQB 210455Z AUTO 30006KT 10SM CLR M03/M05 A3042 RMK AO2 T10261053
 
KMLI - Moline/Quad City, Illinois, USA
Distance from station: NW 64mi, 103km
Updated: 10/20/2018 11:52pm
Clear
Clear
 Wind from WSW
Wind: WSW 3 mph , 6 km/h
Temperature: 30°F , -1°C
Dew Point: 25°F , -4°C
Humidity: 80%
Barometer: 30.38 inHg , 1028.8 hPa
Clouds: Clear
Visibility: 10 miles , 16 km
2018/10/21 04:52 KMLI 210452Z AUTO 24003KT 10SM CLR M01/M04 A3038 RMK AO2 SLP293 T10061044
KSQI - Sterling Rockfal, Illinois, USA
Distance from station: N 64mi, 103km
Updated: 10/20/2018 11:56pm
Clear
Clear
 Wind from W
Wind: W 6 mph , 9 km/h
Temperature: 30°F , -1°C
Wind Chill: 24°F , -4°C
Dew Point: 23°F , -5°C
Humidity: 75%
Barometer: 30.36 inHg , 1028.1 hPa
Clouds: Clear
Visibility: 10 miles , 16 km
2018/10/21 04:56 KSQI 210456Z AUTO 26005KT 10SM CLR M01/M05 A3036 RMK AO2 SLP305 T10111050 FZRANO PNO $
 
KSPI - Springfield, Illinois, USA
Distance from station: S 67mi, 108km
Updated: 10/20/2018 11:52pm
Clear
Clear
 Wind from W
Wind: W 5 mph , 7 km/h
Temperature: 30°F , -1°C
Wind Chill: 25°F , -4°C
Dew Point: 25°F , -4°C
Humidity: 80%
Barometer: 30.39 inHg , 1029.1 hPa
Clouds: Clear
Visibility: 10 miles , 16 km
2018/10/21 04:52 KSPI 210452Z AUTO 28004KT 10SM CLR M01/M04 A3039 RMK AO2 SLP294 T10061044 $
KDVN - Davenport/Quad C, Iowa, USA
Distance from station: NW 74mi, 120km
Updated: 10/20/2018 11:52pm
Clear
Clear
 Wind from WNW
Wind: WNW 6 mph , 9 km/h
Temperature: 28°F , -2°C
Wind Chill: 21°F , -6°C
Dew Point: 19°F , -7°C
Humidity: 69%
Barometer: 30.39 inHg , 1029.1 hPa
Clouds: Clear
Visibility: 10 miles , 16 km
2018/10/21 04:52 KDVN 210452Z AUTO 29005KT 10SM CLR M02/M07 A3039 RMK AO2 SLP295 T10171067